sensor_id;sensor_type;location;lat;lon;timestamp;temperature;humidity
58363;DHT22;54977;51.510;7.522;2022-07-11T00:04:44;18.20;58.90
58363;DHT22;54977;51.510;7.522;2022-07-11T00:09:47;18.20;59.00
58363;DHT22;54977;51.510;7.522;2022-07-11T00:14:49;18.20;59.10
58363;DHT22;54977;51.510;7.522;2022-07-11T00:19:51;18.10;59.30
58363;DHT22;54977;51.510;7.522;2022-07-11T00:24:54;18.00;59.70
58363;DHT22;54977;51.510;7.522;2022-07-11T00:29:56;17.90;60.40
58363;DHT22;54977;51.510;7.522;2022-07-11T00:34:58;17.90;59.90
58363;DHT22;54977;51.510;7.522;2022-07-11T00:40:02;17.80;60.30
58363;DHT22;54977;51.510;7.522;2022-07-11T00:45:05;17.70;60.50
58363;DHT22;54977;51.510;7.522;2022-07-11T00:50:07;17.70;60.70
58363;DHT22;54977;51.510;7.522;2022-07-11T00:55:11;17.60;61.00
58363;DHT22;54977;51.510;7.522;2022-07-11T01:00:13;17.30;61.90
58363;DHT22;54977;51.510;7.522;2022-07-11T01:05:15;17.30;61.60
58363;DHT22;54977;51.510;7.522;2022-07-11T01:10:18;17.20;61.60
58363;DHT22;54977;51.510;7.522;2022-07-11T01:15:20;17.20;62.10
58363;DHT22;54977;51.510;7.522;2022-07-11T01:20:22;17.00;62.70
58363;DHT22;54977;51.510;7.522;2022-07-11T01:25:26;16.90;63.50
58363;DHT22;54977;51.510;7.522;2022-07-11T01:30:35;16.90;63.30
58363;DHT22;54977;51.510;7.522;2022-07-11T01:35:37;16.90;63.50
58363;DHT22;54977;51.510;7.522;2022-07-11T01:40:40;16.80;63.30
58363;DHT22;54977;51.510;7.522;2022-07-11T01:45:42;16.80;63.80
58363;DHT22;54977;51.510;7.522;2022-07-11T01:50:44;16.70;63.70
58363;DHT22;54977;51.510;7.522;2022-07-11T01:55:48;16.60;63.80
58363;DHT22;54977;51.510;7.522;2022-07-11T02:00:50;16.40;64.60
58363;DHT22;54977;51.510;7.522;2022-07-11T02:05:52;16.40;64.70
58363;DHT22;54977;51.510;7.522;2022-07-11T02:10:55;16.40;64.60
58363;DHT22;54977;51.510;7.522;2022-07-11T02:15:57;16.40;65.00
58363;DHT22;54977;51.510;7.522;2022-07-11T02:20:59;16.40;65.40
58363;DHT22;54977;51.510;7.522;2022-07-11T02:26:02;16.50;65.20
58363;DHT22;54977;51.510;7.522;2022-07-11T02:31:04;16.60;65.10
58363;DHT22;54977;51.510;7.522;2022-07-11T02:36:06;16.70;64.80
58363;DHT22;54977;51.510;7.522;2022-07-11T02:41:10;16.80;64.70
58363;DHT22;54977;51.510;7.522;2022-07-11T02:46:12;16.90;64.70
58363;DHT22;54977;51.510;7.522;2022-07-11T02:51:14;16.90;65.40
58363;DHT22;54977;51.510;7.522;2022-07-11T02:56:17;17.00;64.50
58363;DHT22;54977;51.510;7.522;2022-07-11T03:01:19;17.00;64.40
58363;DHT22;54977;51.510;7.522;2022-07-11T03:06:21;17.10;64.20
58363;DHT22;54977;51.510;7.522;2022-07-11T03:11:24;17.20;64.10
58363;DHT22;54977;51.510;7.522;2022-07-11T03:16:26;17.20;63.90
58363;DHT22;54977;51.510;7.522;2022-07-11T03:21:28;17.20;63.90
58363;DHT22;54977;51.510;7.522;2022-07-11T03:26:31;17.20;63.90
58363;DHT22;54977;51.510;7.522;2022-07-11T03:31:33;17.20;63.90
58363;DHT22;54977;51.510;7.522;2022-07-11T03:36:35;17.20;63.90
58363;DHT22;54977;51.510;7.522;2022-07-11T03:41:38;17.20;63.80
58363;DHT22;54977;51.510;7.522;2022-07-11T03:46:40;17.20;64.10
58363;DHT22;54977;51.510;7.522;2022-07-11T03:51:42;17.10;64.00
58363;DHT22;54977;51.510;7.522;2022-07-11T03:56:45;17.30;64.10
58363;DHT22;54977;51.510;7.522;2022-07-11T04:01:47;17.20;64.00
58363;DHT22;54977;51.510;7.522;2022-07-11T04:06:49;17.20;64.10
58363;DHT22;54977;51.510;7.522;2022-07-11T04:11:52;17.40;64.10
58363;DHT22;54977;51.510;7.522;2022-07-11T04:16:54;17.40;63.80
58363;DHT22;54977;51.510;7.522;2022-07-11T04:21:55;17.50;63.80
58363;DHT22;54977;51.510;7.522;2022-07-11T04:27:00;17.40;63.90
58363;DHT22;54977;51.510;7.522;2022-07-11T04:32:02;17.50;63.70
58363;DHT22;54977;51.510;7.522;2022-07-11T04:37:04;17.50;63.70
58363;DHT22;54977;51.510;7.522;2022-07-11T04:42:07;17.60;63.10
58363;DHT22;54977;51.510;7.522;2022-07-11T04:47:10;17.60;63.30
58363;DHT22;54977;51.510;7.522;2022-07-11T04:52:12;17.70;63.20
58363;DHT22;54977;51.510;7.522;2022-07-11T04:57:15;17.70;62.90
58363;DHT22;54977;51.510;7.522;2022-07-11T05:02:17;17.80;63.00
58363;DHT22;54977;51.510;7.522;2022-07-11T05:07:19;17.80;63.00
58363;DHT22;54977;51.510;7.522;2022-07-11T05:12:22;17.80;63.00
58363;DHT22;54977;51.510;7.522;2022-07-11T05:17:24;17.70;63.00
58363;DHT22;54977;51.510;7.522;2022-07-11T05:22:26;17.70;62.60
58363;DHT22;54977;51.510;7.522;2022-07-11T05:27:29;17.90;62.10
58363;DHT22;54977;51.510;7.522;2022-07-11T05:32:31;17.90;61.60
58363;DHT22;54977;51.510;7.522;2022-07-11T05:37:33;18.00;61.10
58363;DHT22;54977;51.510;7.522;2022-07-11T05:42:36;18.00;61.60
58363;DHT22;54977;51.510;7.522;2022-07-11T05:47:38;18.10;61.10
58363;DHT22;54977;51.510;7.522;2022-07-11T05:52:40;18.00;61.00
58363;DHT22;54977;51.510;7.522;2022-07-11T05:57:43;17.90;60.40
58363;DHT22;54977;51.510;7.522;2022-07-11T06:02:45;17.60;61.20
58363;DHT22;54977;51.510;7.522;2022-07-11T06:07:47;17.90;61.10
58363;DHT22;54977;51.510;7.522;2022-07-11T06:13:08;17.70;60.50
58363;DHT22;54977;51.510;7.522;2022-07-11T06:18:10;17.90;60.20
58363;DHT22;54977;51.510;7.522;2022-07-11T06:23:12;18.10;58.70
58363;DHT22;54977;51.510;7.522;2022-07-11T06:28:15;18.10;58.50
58363;DHT22;54977;51.510;7.522;2022-07-11T06:33:17;18.20;58.20
58363;DHT22;54977;51.510;7.522;2022-07-11T06:38:19;18.40;57.70
58363;DHT22;54977;51.510;7.522;2022-07-11T06:43:22;18.40;56.70
58363;DHT22;54977;51.510;7.522;2022-07-11T06:48:25;18.30;56.40
58363;DHT22;54977;51.510;7.522;2022-07-11T06:53:27;18.20;56.00
58363;DHT22;54977;51.510;7.522;2022-07-11T06:58:30;18.40;56.30
58363;DHT22;54977;51.510;7.522;2022-07-11T07:03:35;18.90;55.60
58363;DHT22;54977;51.510;7.522;2022-07-11T07:08:38;19.10;53.30
58363;DHT22;54977;51.510;7.522;2022-07-11T07:13:41;19.10;54.40
58363;DHT22;54977;51.510;7.522;2022-07-11T07:18:46;19.70;52.70
58363;DHT22;54977;51.510;7.522;2022-07-11T07:23:48;19.70;52.00
58363;DHT22;54977;51.510;7.522;2022-07-11T07:28:52;19.50;52.70
58363;DHT22;54977;51.510;7.522;2022-07-11T07:33:54;19.50;52.10
58363;DHT22;54977;51.510;7.522;2022-07-11T07:38:55;19.20;53.50
58363;DHT22;54977;51.510;7.522;2022-07-11T07:43:59;19.30;53.70
58363;DHT22;54977;51.510;7.522;2022-07-11T07:49:01;18.90;54.70
58363;DHT22;54977;51.510;7.522;2022-07-11T07:54:03;18.90;55.50
58363;DHT22;54977;51.510;7.522;2022-07-11T07:59:06;19.20;55.10
58363;DHT22;54977;51.510;7.522;2022-07-11T08:04:09;19.20;55.00
58363;DHT22;54977;51.510;7.522;2022-07-11T08:09:11;19.00;56.10
58363;DHT22;54977;51.510;7.522;2022-07-11T08:14:14;18.60;56.60
58363;DHT22;54977;51.510;7.522;2022-07-11T08:19:16;19.10;56.40
58363;DHT22;54977;51.510;7.522;2022-07-11T08:24:18;18.70;56.20
58363;DHT22;54977;51.510;7.522;2022-07-11T08:29:21;18.80;57.00
58363;DHT22;54977;51.510;7.522;2022-07-11T08:34:23;19.30;55.80
58363;DHT22;54977;51.510;7.522;2022-07-11T08:39:25;19.50;55.90
58363;DHT22;54977;51.510;7.522;2022-07-11T08:44:28;19.00;57.30
58363;DHT22;54977;51.510;7.522;2022-07-11T08:49:31;19.20;56.00
58363;DHT22;54977;51.510;7.522;2022-07-11T08:54:33;19.30;56.30
58363;DHT22;54977;51.510;7.522;2022-07-11T08:59:37;19.10;57.50
58363;DHT22;54977;51.510;7.522;2022-07-11T09:04:42;19.30;56.80
58363;DHT22;54977;51.510;7.522;2022-07-11T09:09:44;19.80;56.60
58363;DHT22;54977;51.510;7.522;2022-07-11T09:14:48;19.40;55.80
58363;DHT22;54977;51.510;7.522;2022-07-11T09:19:53;20.50;54.60
58363;DHT22;54977;51.510;7.522;2022-07-11T09:24:56;21.10;52.70
58363;DHT22;54977;51.510;7.522;2022-07-11T09:30:20;20.90;52.40
58363;DHT22;54977;51.510;7.522;2022-07-11T09:35:22;19.90;54.30
58363;DHT22;54977;51.510;7.522;2022-07-11T09:40:24;19.80;55.80
58363;DHT22;54977;51.510;7.522;2022-07-11T09:45:30;20.10;55.60
58363;DHT22;54977;51.510;7.522;2022-07-11T09:50:32;20.40;54.50
58363;DHT22;54977;51.510;7.522;2022-07-11T09:55:35;20.50;53.90
58363;DHT22;54977;51.510;7.522;2022-07-11T10:00:39;20.60;53.10
58363;DHT22;54977;51.510;7.522;2022-07-11T10:05:41;20.60;52.50
58363;DHT22;54977;51.510;7.522;2022-07-11T10:10:43;20.10;52.70
58363;DHT22;54977;51.510;7.522;2022-07-11T10:15:47;20.30;53.70
58363;DHT22;54977;51.510;7.522;2022-07-11T10:20:54;20.70;52.70
58363;DHT22;54977;51.510;7.522;2022-07-11T10:26:01;20.60;52.50
58363;DHT22;54977;51.510;7.522;2022-07-11T10:31:17;20.30;52.50
58363;DHT22;54977;51.510;7.522;2022-07-11T10:36:26;20.40;53.50
58363;DHT22;54977;51.510;7.522;2022-07-11T10:41:28;20.30;54.90
58363;DHT22;54977;51.510;7.522;2022-07-11T10:46:31;20.30;55.40
58363;DHT22;54977;51.510;7.522;2022-07-11T10:51:37;20.70;54.20
58363;DHT22;54977;51.510;7.522;2022-07-11T10:56:53;21.60;52.00
58363;DHT22;54977;51.510;7.522;2022-07-11T11:02:08;22.50;50.00
58363;DHT22;54977;51.510;7.522;2022-07-11T11:07:30;22.60;48.30
58363;DHT22;54977;51.510;7.522;2022-07-11T11:13:09;22.40;49.30
58363;DHT22;54977;51.510;7.522;2022-07-11T11:18:35;21.60;50.70
58363;DHT22;54977;51.510;7.522;2022-07-11T11:23:38;21.10;52.30
58363;DHT22;54977;51.510;7.522;2022-07-11T11:28:55;20.70;53.50
58363;DHT22;54977;51.510;7.522;2022-07-11T11:33:59;20.50;53.90
58363;DHT22;54977;51.510;7.522;2022-07-11T11:39:01;20.00;54.50
58363;DHT22;54977;51.510;7.522;2022-07-11T11:44:03;20.70;53.70
58363;DHT22;54977;51.510;7.522;2022-07-11T11:49:07;21.70;51.40
58363;DHT22;54977;51.510;7.522;2022-07-11T11:54:10;23.40;47.40
58363;DHT22;54977;51.510;7.522;2022-07-11T11:59:12;24.50;45.30
58363;DHT22;54977;51.510;7.522;2022-07-11T12:04:16;25.80;42.30
58363;DHT22;54977;51.510;7.522;2022-07-11T12:09:19;26.10;41.50
58363;DHT22;54977;51.510;7.522;2022-07-11T12:14:23;26.30;40.60
58363;DHT22;54977;51.510;7.522;2022-07-11T12:19:33;25.70;41.00
58363;DHT22;54977;51.510;7.522;2022-07-11T12:24:35;24.60;42.90
58363;DHT22;54977;51.510;7.522;2022-07-11T12:29:40;23.90;44.90
58363;DHT22;54977;51.510;7.522;2022-07-11T12:34:47;23.50;45.70
58363;DHT22;54977;51.510;7.522;2022-07-11T12:39:51;23.30;46.20
58363;DHT22;54977;51.510;7.522;2022-07-11T12:44:56;24.10;45.30
58363;DHT22;54977;51.510;7.522;2022-07-11T12:50:12;25.70;42.80
58363;DHT22;54977;51.510;7.522;2022-07-11T12:55:23;26.80;40.00
58363;DHT22;54977;51.510;7.522;2022-07-11T13:00:25;27.10;39.10
58363;DHT22;54977;51.510;7.522;2022-07-11T13:05:28;27.00;37.80
58363;DHT22;54977;51.510;7.522;2022-07-11T13:10:30;26.50;38.90
58363;DHT22;54977;51.510;7.522;2022-07-11T13:15:50;25.40;40.80
58363;DHT22;54977;51.510;7.522;2022-07-11T13:20:54;24.90;42.20
58363;DHT22;54977;51.510;7.522;2022-07-11T13:25:57;24.40;42.90
58363;DHT22;54977;51.510;7.522;2022-07-11T13:30:59;24.10;43.40
58363;DHT22;54977;51.510;7.522;2022-07-11T13:36:02;24.20;43.60
58363;DHT22;54977;51.510;7.522;2022-07-11T13:41:04;24.70;43.20
58363;DHT22;54977;51.510;7.522;2022-07-11T13:46:06;24.60;43.00
58363;DHT22;54977;51.510;7.522;2022-07-11T13:51:11;25.00;42.90
58363;DHT22;54977;51.510;7.522;2022-07-11T13:56:13;26.70;40.50
58363;DHT22;54977;51.510;7.522;2022-07-11T14:01:15;27.90;38.20
58363;DHT22;54977;51.510;7.522;2022-07-11T14:06:18;28.60;36.20
58363;DHT22;54977;51.510;7.522;2022-07-11T14:11:20;27.90;37.30
58363;DHT22;54977;51.510;7.522;2022-07-11T14:16:22;28.20;36.70
58363;DHT22;54977;51.510;7.522;2022-07-11T14:21:26;28.10;37.00
58363;DHT22;54977;51.510;7.522;2022-07-11T14:26:29;27.90;37.50
58363;DHT22;54977;51.510;7.522;2022-07-11T14:31:31;27.60;38.70
58363;DHT22;54977;51.510;7.522;2022-07-11T14:36:34;27.40;37.80
58363;DHT22;54977;51.510;7.522;2022-07-11T14:41:36;27.30;37.50
58363;DHT22;54977;51.510;7.522;2022-07-11T14:46:38;26.70;38.40
58363;DHT22;54977;51.510;7.522;2022-07-11T14:51:42;27.30;38.30
58363;DHT22;54977;51.510;7.522;2022-07-11T14:56:44;27.50;37.90
58363;DHT22;54977;51.510;7.522;2022-07-11T15:01:46;27.10;38.70
58363;DHT22;54977;51.510;7.522;2022-07-11T15:06:49;26.00;40.10
58363;DHT22;54977;51.510;7.522;2022-07-11T15:12:08;25.30;41.70
58363;DHT22;54977;51.510;7.522;2022-07-11T15:17:24;24.80;42.40
58363;DHT22;54977;51.510;7.522;2022-07-11T15:22:27;24.50;43.70
58363;DHT22;54977;51.510;7.522;2022-07-11T15:27:29;24.50;44.40
58363;DHT22;54977;51.510;7.522;2022-07-11T15:32:31;24.50;43.70
58363;DHT22;54977;51.510;7.522;2022-07-11T15:37:35;24.40;44.10
58363;DHT22;54977;51.510;7.522;2022-07-11T15:42:38;23.90;44.60
58363;DHT22;54977;51.510;7.522;2022-07-11T15:47:40;23.80;44.30
58363;DHT22;54977;51.510;7.522;2022-07-11T15:52:44;23.60;45.10
58363;DHT22;54977;51.510;7.522;2022-07-11T15:57:45;23.50;44.90
58363;DHT22;54977;51.510;7.522;2022-07-11T16:02:48;22.90;44.20
58363;DHT22;54977;51.510;7.522;2022-07-11T16:07:51;22.60;46.10
58363;DHT22;54977;51.510;7.522;2022-07-11T16:12:53;22.50;45.60
58363;DHT22;54977;51.510;7.522;2022-07-11T16:17:55;22.40;46.10
58363;DHT22;54977;51.510;7.522;2022-07-11T16:22:58;22.10;46.80
58363;DHT22;54977;51.510;7.522;2022-07-11T16:28:00;22.30;47.70
58363;DHT22;54977;51.510;7.522;2022-07-11T16:33:03;22.10;46.80
58363;DHT22;54977;51.510;7.522;2022-07-11T16:38:06;22.00;48.00
58363;DHT22;54977;51.510;7.522;2022-07-11T16:43:08;22.30;47.20
58363;DHT22;54977;51.510;7.522;2022-07-11T16:48:22;22.20;46.70
58363;DHT22;54977;51.510;7.522;2022-07-11T16:53:26;22.00;47.10
58363;DHT22;54977;51.510;7.522;2022-07-11T16:58:28;22.10;47.40
58363;DHT22;54977;51.510;7.522;2022-07-11T17:03:30;22.30;47.80
58363;DHT22;54977;51.510;7.522;2022-07-11T17:08:34;22.40;46.60
58363;DHT22;54977;51.510;7.522;2022-07-11T17:13:45;22.40;46.90
58363;DHT22;54977;51.510;7.522;2022-07-11T17:18:47;22.20;47.10
58363;DHT22;54977;51.510;7.522;2022-07-11T17:23:50;22.80;46.00
58363;DHT22;54977;51.510;7.522;2022-07-11T17:28:54;23.20;45.20
58363;DHT22;54977;51.510;7.522;2022-07-11T17:33:56;23.60;44.00
58363;DHT22;54977;51.510;7.522;2022-07-11T17:39:00;23.90;43.40
58363;DHT22;54977;51.510;7.522;2022-07-11T17:44:02;22.90;44.30
58363;DHT22;54977;51.510;7.522;2022-07-11T17:49:04;22.90;45.90
58363;DHT22;54977;51.510;7.522;2022-07-11T17:54:07;23.00;46.00
58363;DHT22;54977;51.510;7.522;2022-07-11T17:59:09;23.00;45.60
58363;DHT22;54977;51.510;7.522;2022-07-11T18:04:11;22.90;46.10
58363;DHT22;54977;51.510;7.522;2022-07-11T18:09:14;22.80;46.30
58363;DHT22;54977;51.510;7.522;2022-07-11T18:14:19;22.90;46.60
58363;DHT22;54977;51.510;7.522;2022-07-11T18:19:21;23.00;46.30
58363;DHT22;54977;51.510;7.522;2022-07-11T18:24:24;22.90;46.50
58363;DHT22;54977;51.510;7.522;2022-07-11T18:29:27;22.40;47.50
58363;DHT22;54977;51.510;7.522;2022-07-11T18:34:29;21.90;48.30
58363;DHT22;54977;51.510;7.522;2022-07-11T18:39:32;21.90;48.70
58363;DHT22;54977;51.510;7.522;2022-07-11T18:44:51;21.90;48.90
58363;DHT22;54977;51.510;7.522;2022-07-11T18:49:53;21.70;49.30
58363;DHT22;54977;51.510;7.522;2022-07-11T18:54:57;21.50;50.10
58363;DHT22;54977;51.510;7.522;2022-07-11T18:59:58;21.30;50.40
58363;DHT22;54977;51.510;7.522;2022-07-11T19:05:00;21.20;51.20
58363;DHT22;54977;51.510;7.522;2022-07-11T19:10:05;21.00;51.90
58363;DHT22;54977;51.510;7.522;2022-07-11T19:15:07;21.00;52.40
58363;DHT22;54977;51.510;7.522;2022-07-11T19:20:10;20.80;52.90
58363;DHT22;54977;51.510;7.522;2022-07-11T19:25:15;20.70;52.90
58363;DHT22;54977;51.510;7.522;2022-07-11T19:30:17;20.50;53.40
58363;DHT22;54977;51.510;7.522;2022-07-11T19:35:19;20.30;53.60
58363;DHT22;54977;51.510;7.522;2022-07-11T19:40:22;20.20;54.30
58363;DHT22;54977;51.510;7.522;2022-07-11T19:45:24;20.10;54.70
58363;DHT22;54977;51.510;7.522;2022-07-11T19:50:26;20.00;55.40
58363;DHT22;54977;51.510;7.522;2022-07-11T19:55:30;19.90;55.70
58363;DHT22;54977;51.510;7.522;2022-07-11T20:00:49;19.90;55.80
58363;DHT22;54977;51.510;7.522;2022-07-11T20:05:51;19.90;55.80
58363;DHT22;54977;51.510;7.522;2022-07-11T20:10:54;19.80;56.00
58363;DHT22;54977;51.510;7.522;2022-07-11T20:15:56;19.70;56.40
58363;DHT22;54977;51.510;7.522;2022-07-11T20:20:58;19.80;56.70
58363;DHT22;54977;51.510;7.522;2022-07-11T20:26:01;19.70;56.60
58363;DHT22;54977;51.510;7.522;2022-07-11T20:31:03;19.70;57.10
58363;DHT22;54977;51.510;7.522;2022-07-11T20:36:05;19.60;57.30
58363;DHT22;54977;51.510;7.522;2022-07-11T20:41:08;19.60;57.50
58363;DHT22;54977;51.510;7.522;2022-07-11T20:46:10;19.50;57.60
58363;DHT22;54977;51.510;7.522;2022-07-11T20:51:12;19.30;57.90
58363;DHT22;54977;51.510;7.522;2022-07-11T20:56:15;19.10;58.30
58363;DHT22;54977;51.510;7.522;2022-07-11T21:01:17;18.90;58.70
58363;DHT22;54977;51.510;7.522;2022-07-11T21:06:18;18.70;59.20
58363;DHT22;54977;51.510;7.522;2022-07-11T21:11:22;18.60;59.80
58363;DHT22;54977;51.510;7.522;2022-07-11T21:16:23;18.40;60.30
58363;DHT22;54977;51.510;7.522;2022-07-11T21:21:25;18.30;60.20
58363;DHT22;54977;51.510;7.522;2022-07-11T21:26:29;18.20;60.50
58363;DHT22;54977;51.510;7.522;2022-07-11T21:31:30;18.10;60.70
58363;DHT22;54977;51.510;7.522;2022-07-11T21:36:32;18.00;61.10
58363;DHT22;54977;51.510;7.522;2022-07-11T21:41:35;17.90;61.00
58363;DHT22;54977;51.510;7.522;2022-07-11T21:46:37;17.80;61.80
58363;DHT22;54977;51.510;7.522;2022-07-11T21:51:39;17.60;62.70
58363;DHT22;54977;51.510;7.522;2022-07-11T21:56:42;17.60;63.40
58363;DHT22;54977;51.510;7.522;2022-07-11T22:01:44;17.50;62.90
58363;DHT22;54977;51.510;7.522;2022-07-11T22:06:46;17.50;63.10
58363;DHT22;54977;51.510;7.522;2022-07-11T22:11:49;17.40;63.30
58363;DHT22;54977;51.510;7.522;2022-07-11T22:16:51;17.40;63.60
58363;DHT22;54977;51.510;7.522;2022-07-11T22:21:53;17.40;63.70
58363;DHT22;54977;51.510;7.522;2022-07-11T22:26:56;17.40;63.80
58363;DHT22;54977;51.510;7.522;2022-07-11T22:31:58;17.30;64.20
58363;DHT22;54977;51.510;7.522;2022-07-11T22:37:00;17.20;64.30
58363;DHT22;54977;51.510;7.522;2022-07-11T22:42:04;17.20;64.40
58363;DHT22;54977;51.510;7.522;2022-07-11T22:47:06;17.20;64.50
58363;DHT22;54977;51.510;7.522;2022-07-11T22:52:08;17.00;64.70
58363;DHT22;54977;51.510;7.522;2022-07-11T22:57:11;17.00;65.00
58363;DHT22;54977;51.510;7.522;2022-07-11T23:02:13;16.90;65.00
58363;DHT22;54977;51.510;7.522;2022-07-11T23:07:14;16.80;65.90
58363;DHT22;54977;51.510;7.522;2022-07-11T23:12:18;16.70;64.90
58363;DHT22;54977;51.510;7.522;2022-07-11T23:17:19;16.60;65.00
58363;DHT22;54977;51.510;7.522;2022-07-11T23:22:21;16.60;66.00
58363;DHT22;54977;51.510;7.522;2022-07-11T23:27:24;16.40;67.00
58363;DHT22;54977;51.510;7.522;2022-07-11T23:32:26;16.50;66.60
58363;DHT22;54977;51.510;7.522;2022-07-11T23:37:28;16.40;66.90
58363;DHT22;54977;51.510;7.522;2022-07-11T23:42:31;16.40;66.90
58363;DHT22;54977;51.510;7.522;2022-07-11T23:47:33;16.40;66.70
58363;DHT22;54977;51.510;7.522;2022-07-11T23:52:35;16.30;65.70
58363;DHT22;54977;51.510;7.522;2022-07-11T23:57:39;16.20;67.00
